Tuesday, June 19, 2018, 12:55 AM EDT
Back to Local

KPNE, N.e. Philadelphia Airport

Location: Philadelphia, PA, United States Lat: 40.083
Local Time: 12:55 AM EDT ( 4:55 GMT) Lon: -75.017
Time Zone: US/Eastern Elev: 121 ft

Show me the last for .
Show Decoded

2018-06-18 23:54 METAR KPNE 190354Z AUTO 00000KT 6SM BR CLR 26/23 A2983 RMK AO2 SLP101 T02560233
                 =
2018-06-18 22:54 METAR KPNE 190254Z AUTO 24004KT 7SM CLR 25/23 A2986 RMK AO2 SLP109 60017
                 T02500233 50004 =
2018-06-18 21:54 METAR KPNE 190154Z 00000KT 10SM FEW075 BKN100 BKN120 26/23 A2987 RMK AO2 PK WND
                 28031/0057 WSHFT 0056 LTG DSNT SE RAB0058E54 TSB05E36 SLP114 P0017 T02560228 =
2018-06-18 21:50 METAR KPNE 190150Z 19003KT 10SM -RA FEW070 BKN100 BKN120 25/23 A2987 RMK AO2 PK
                 WND 28031/0057 WSHFT 0056 LTG DSNT SE RAB0058 TSB05E36 P0017 =
2018-06-18 21:42 METAR KPNE 190142Z 00000KT 10SM VCTS -RA FEW055 BKN100 OVC110 26/22 A2988 RMK
                 AO2 PK WND 28031/0057 WSHFT 0056 LTG DSNT E AND SE RAB0058 TSB05E36 P0017
                 T02560222 =
2018-06-18 21:20 METAR KPNE 190120Z 31007G19KT 3SM -TSRA SCT037 BKN050 OVC095 26/22 A2988 RMK AO2
                 PK WND 28031/0057 WSHFT 0056 LTG DSNT NE AND E AND W RAB0058 TSB05 P0017
                 T02560217 =
2018-06-18 21:12 METAR KPNE 190112Z 31013G23KT 1 3/4SM +TSRA BKN036 BKN050 OVC070 26/21 A2988 RMK
                 AO2 PK WND 28031/0057 WSHFT 0056 VIS 1 1/4V5 LTG DSNT W-NE RAB0058 TSB05 P0008
                 T02560211 =
2018-06-18 21:09 METAR KPNE 190109Z 29014G26KT 2 1/2SM +TSRA BKN042 BKN055 BKN075 26/22 A2988 RMK
                 AO2 PK WND 28031/0057 VIS 1 1/2V5 LTG DSNT W-NE RAB0058 TSB05 P0005 T02610217 =
2018-06-18 21:02 METAR KPNE 190102Z 30019G31KT 8SM VCTS -RA FEW036 BKN055 BKN075 28/22 A2988 RMK
                 AO2 PK WND 28031/0057 LTG DSNT W-NE RAB0058 PRESRR P0000 T02780222 =
2018-06-18 20:54 METAR KPNE 190054Z 23009KT 10SM SCT055 SCT070 31/22 A2985 RMK AO2 LTG DSNT W-NE
                 SLP105 T03060217 =
2018-06-18 19:54 METAR KPNE 182354Z 21009KT 10SM CLR 32/21 A2983 RMK AO2 LTG DSNT NW SLP101
                 T03170211 10344 20317 56019 =
2018-06-18 18:54 METAR KPNE 182254Z 21012G16KT 10SM CLR 33/22 A2984 RMK AO2 SLP103 T03280217 =
2018-06-18 17:54 METAR KPNE 182154Z 24012G18KT 10SM CLR 33/22 A2986 RMK AO2 SLP111 T03330217 =
2018-06-18 16:54 METAR KPNE 182054Z 23011G18KT 10SM CLR 33/21 A2989 RMK AO2 SLP120 T03330211
                 56024 =
2018-06-18 15:54 METAR KPNE 181954Z 21006G16KT 10SM CLR 33/21 A2991 RMK AO2 SLP127 T03330211 =
2018-06-18 14:54 METAR KPNE 181854Z VRB05G14KT 10SM BKN049 33/21 A2994 RMK AO2 SLP137 T03330211 =
2018-06-18 13:54 METAR KPNE 181754Z VRB06KT 10SM FEW049 33/22 A2996 RMK AO2 SLP144 T03330217
                 10339 20250 58019 =
2018-06-18 12:54 METAR KPNE 181654Z 22008KT 10SM SCT044 32/21 A2999 RMK AO2 SLP153 T03220211 =
2018-06-18 11:54 METAR KPNE 181554Z 23008KT 10SM FEW041 32/22 A3000 RMK AO2 SLP158 T03220217 =
2018-06-18 10:54 METAR KPNE 181454Z 23006KT 10SM CLR 32/22 A3002 RMK AO2 SLP164 T03170217 58013 =
2018-06-18 09:54 METAR KPNE 181354Z 23006KT 10SM CLR 29/22 A3003 RMK AO2 SLP168 T02940217 =
2018-06-18 08:54 METAR KPNE 181254Z 23007KT 10SM CLR 28/21 A3005 RMK AO2 SLP174 T02780206 =
2018-06-18 07:54 METAR KPNE 181154Z 21005KT 10SM CLR 25/21 A3006 RMK AO2 SLP177 T02500206 10250
                 20217 58006 =
2018-06-18 06:54 METAR KPNE 181054Z 00000KT 8SM CLR 23/20 A3007 RMK AO2 SLP181 T02330200 =
2018-06-18 05:54 METAR KPNE 180954Z 00000KT 6SM BR CLR 22/20 A3008 RMK AO2 SLP184 T02220200 =
2018-06-18 04:54 METAR KPNE 180854Z AUTO 00000KT 9SM CLR 22/19 A3008 RMK AO2 SLP183 T02220194
                 55002 =
2018-06-18 03:54 METAR KPNE 180754Z AUTO 00000KT 10SM CLR 23/19 A3007 RMK AO2 SLP182 T02280194 =
2018-06-18 02:54 METAR KPNE 180654Z AUTO 00000KT 10SM CLR 23/19 A3008 RMK AO2 SLP185 T02280189 =
2018-06-18 01:54 METAR KPNE 180554Z AUTO 00000KT 10SM CLR 23/18 A3008 RMK AO2 SLP185 T02330183
                 10294 20233 58002 =

Support USWX by starting your Amazon purchase here.